Lipscomb, Texas
Current Conditions -  °F | °C
As of 2:35 AM on Monday 22 Dec 2014 (Local Time) from KHHF Reporting Station
Overcast Overcast  
Wind Chill: 37°   Ceiling: 100
Heat Index: 40°   Visibility: NA
Dew Point: 39°   Wind: 5mph
Humidity: 97%   Direction: 260°W
Pressure: 29.55"   Gusts: NA
Location:  36.23°N, 100.27°W
Report Text: KHHF 220835Z AUTO 26004KT OVC001 04/04 A2955 RMK AO2 T00440040 PWINO
Loading
Personal Weather Stations






























Interactive Weather Map New forecast layout! Learn more

10-Day Weather Forecast

Advertisements
Track Severe Weather on mobile